sensor_id;sensor_type;location;lat;lon;timestamp;P1;durP1;ratioP1;P2;durP2;ratioP2
37169;SDS011;23062;13.952;100.608;2023-12-07T00:03:45;15.00;;;11.00;;
37169;SDS011;23062;13.952;100.608;2023-12-07T00:08:25;20.00;;;15.00;;
37169;SDS011;23062;13.952;100.608;2023-12-07T00:13:10;16.00;;;12.00;;
37169;SDS011;23062;13.952;100.608;2023-12-07T00:17:55;18.00;;;13.00;;
37169;SDS011;23062;13.952;100.608;2023-12-07T00:22:41;19.00;;;15.00;;
37169;SDS011;23062;13.952;100.608;2023-12-07T00:27:24;21.00;;;15.00;;
37169;SDS011;23062;13.952;100.608;2023-12-07T00:32:04;19.00;;;14.00;;
37169;SDS011;23062;13.952;100.608;2023-12-07T00:36:48;17.00;;;13.00;;
37169;SDS011;23062;13.952;100.608;2023-12-07T00:41:32;21.00;;;15.00;;
37169;SDS011;23062;13.952;100.608;2023-12-07T00:46:10;22.00;;;16.00;;
37169;SDS011;23062;13.952;100.608;2023-12-07T00:50:45;22.00;;;16.00;;
37169;SDS011;23062;13.952;100.608;2023-12-07T00:55:30;16.00;;;12.00;;
37169;SDS011;23062;13.952;100.608;2023-12-07T01:00:14;15.00;;;10.00;;
37169;SDS011;23062;13.952;100.608;2023-12-07T01:04:59;12.00;;;8.00;;
37169;SDS011;23062;13.952;100.608;2023-12-07T01:09:47;10.00;;;7.00;;
37169;SDS011;23062;13.952;100.608;2023-12-07T01:14:23;12.00;;;8.00;;
37169;SDS011;23062;13.952;100.608;2023-12-07T01:19:07;10.00;;;7.00;;
37169;SDS011;23062;13.952;100.608;2023-12-07T01:23:54;7.00;;;5.00;;
37169;SDS011;23062;13.952;100.608;2023-12-07T01:28:38;8.00;;;5.00;;
37169;SDS011;23062;13.952;100.608;2023-12-07T01:33:16;9.00;;;7.00;;
37169;SDS011;23062;13.952;100.608;2023-12-07T01:38:01;10.00;;;7.00;;
37169;SDS011;23062;13.952;100.608;2023-12-07T01:42:37;8.00;;;5.00;;
37169;SDS011;23062;13.952;100.608;2023-12-07T01:47:20;9.00;;;6.00;;
37169;SDS011;23062;13.952;100.608;2023-12-07T01:51:57;8.00;;;5.00;;
37169;SDS011;23062;13.952;100.608;2023-12-07T01:56:37;6.00;;;4.00;;
37169;SDS011;23062;13.952;100.608;2023-12-07T02:01:12;8.00;;;6.00;;
37169;SDS011;23062;13.952;100.608;2023-12-07T02:05:53;8.00;;;6.00;;
37169;SDS011;23062;13.952;100.608;2023-12-07T02:10:32;4.00;;;3.00;;
37169;SDS011;23062;13.952;100.608;2023-12-07T02:15:09;7.00;;;5.00;;
37169;SDS011;23062;13.952;100.608;2023-12-07T02:29:48;4.00;;;3.00;;
37169;SDS011;23062;13.952;100.608;2023-12-07T02:34:36;5.60;;;3.73;;
37169;SDS011;23062;13.952;100.608;2023-12-07T02:39:18;6.00;;;4.00;;
37169;SDS011;23062;13.952;100.608;2023-12-07T02:44:01;7.00;;;5.00;;
37169;SDS011;23062;13.952;100.608;2023-12-07T02:48:40;8.00;;;5.00;;
37169;SDS011;23062;13.952;100.608;2023-12-07T02:53:25;5.00;;;3.00;;
37169;SDS011;23062;13.952;100.608;2023-12-07T02:58:02;6.00;;;4.00;;
37169;SDS011;23062;13.952;100.608;2023-12-07T03:02:39;5.00;;;3.00;;
37169;SDS011;23062;13.952;100.608;2023-12-07T03:07:24;6.00;;;4.00;;
37169;SDS011;23062;13.952;100.608;2023-12-07T03:12:00;4.00;;;2.00;;
37169;SDS011;23062;13.952;100.608;2023-12-07T03:16:44;2.00;;;1.00;;
37169;SDS011;23062;13.952;100.608;2023-12-07T03:21:19;4.00;;;2.00;;
37169;SDS011;23062;13.952;100.608;2023-12-07T03:26:05;5.00;;;3.00;;
37169;SDS011;23062;13.952;100.608;2023-12-07T03:30:49;3.00;;;2.00;;
37169;SDS011;23062;13.952;100.608;2023-12-07T03:35:29;3.00;;;2.00;;
37169;SDS011;23062;13.952;100.608;2023-12-07T03:40:11;4.00;;;2.00;;
37169;SDS011;23062;13.952;100.608;2023-12-07T03:44:55;2.00;;;1.00;;
37169;SDS011;23062;13.952;100.608;2023-12-07T03:49:32;3.00;;;2.00;;
37169;SDS011;23062;13.952;100.608;2023-12-07T03:54:14;4.00;;;2.00;;
37169;SDS011;23062;13.952;100.608;2023-12-07T03:58:58;2.00;;;1.00;;
37169;SDS011;23062;13.952;100.608;2023-12-07T04:03:34;3.00;;;1.00;;
37169;SDS011;23062;13.952;100.608;2023-12-07T04:08:14;2.00;;;1.00;;
37169;SDS011;23062;13.952;100.608;2023-12-07T04:12:54;2.00;;;1.00;;
37169;SDS011;23062;13.952;100.608;2023-12-07T04:17:31;3.73;;;1.87;;
37169;SDS011;23062;13.952;100.608;2023-12-07T04:22:16;2.00;;;1.00;;
37169;SDS011;23062;13.952;100.608;2023-12-07T04:27:01;3.00;;;2.00;;
37169;SDS011;23062;13.952;100.608;2023-12-07T04:31:46;2.00;;;1.00;;
37169;SDS011;23062;13.952;100.608;2023-12-07T04:36:23;4.00;;;2.00;;
37169;SDS011;23062;13.952;100.608;2023-12-07T04:41:01;5.00;;;3.00;;
37169;SDS011;23062;13.952;100.608;2023-12-07T04:45:47;2.00;;;1.00;;
37169;SDS011;23062;13.952;100.608;2023-12-07T04:50:30;3.00;;;1.00;;
37169;SDS011;23062;13.952;100.608;2023-12-07T04:55:15;2.00;;;1.00;;
37169;SDS011;23062;13.952;100.608;2023-12-07T04:59:57;5.00;;;3.00;;
37169;SDS011;23062;13.952;100.608;2023-12-07T05:04:38;2.00;;;1.00;;
37169;SDS011;23062;13.952;100.608;2023-12-07T05:09:14;2.00;;;1.00;;
37169;SDS011;23062;13.952;100.608;2023-12-07T05:13:58;3.00;;;2.00;;
37169;SDS011;23062;13.952;100.608;2023-12-07T05:18:36;4.00;;;2.00;;
37169;SDS011;23062;13.952;100.608;2023-12-07T05:23:16;8.00;;;5.00;;
37169;SDS011;23062;13.952;100.608;2023-12-07T05:28:02;3.00;;;2.00;;
37169;SDS011;23062;13.952;100.608;2023-12-07T05:32:47;3.00;;;2.00;;
37169;SDS011;23062;13.952;100.608;2023-12-07T05:37:27;4.00;;;2.00;;
37169;SDS011;23062;13.952;100.608;2023-12-07T05:42:05;5.00;;;3.00;;
37169;SDS011;23062;13.952;100.608;2023-12-07T05:46:44;3.00;;;2.00;;
37169;SDS011;23062;13.952;100.608;2023-12-07T05:51:28;2.00;;;1.00;;
37169;SDS011;23062;13.952;100.608;2023-12-07T05:56:09;2.80;;;1.87;;
37169;SDS011;23062;13.952;100.608;2023-12-07T06:00:53;2.00;;;1.00;;
37169;SDS011;23062;13.952;100.608;2023-12-07T06:05:40;3.00;;;2.00;;
37169;SDS011;23062;13.952;100.608;2023-12-07T06:10:24;9.00;;;6.00;;
37169;SDS011;23062;13.952;100.608;2023-12-07T06:15:01;5.00;;;3.00;;
37169;SDS011;23062;13.952;100.608;2023-12-07T06:19:42;5.00;;;3.00;;
37169;SDS011;23062;13.952;100.608;2023-12-07T06:24:27;4.00;;;2.00;;
37169;SDS011;23062;13.952;100.608;2023-12-07T06:29:11;3.00;;;2.00;;
37169;SDS011;23062;13.952;100.608;2023-12-07T06:33:47;5.00;;;3.00;;
37169;SDS011;23062;13.952;100.608;2023-12-07T06:38:32;5.00;;;3.00;;
37169;SDS011;23062;13.952;100.608;2023-12-07T06:43:15;4.00;;;3.00;;
37169;SDS011;23062;13.952;100.608;2023-12-07T06:47:51;3.00;;;2.00;;
37169;SDS011;23062;13.952;100.608;2023-12-07T06:52:34;5.00;;;3.00;;
37169;SDS011;23062;13.952;100.608;2023-12-07T06:57:18;3.00;;;2.00;;
37169;SDS011;23062;13.952;100.608;2023-12-07T07:02:01;4.00;;;2.00;;
37169;SDS011;23062;13.952;100.608;2023-12-07T07:06:45;3.00;;;2.00;;
37169;SDS011;23062;13.952;100.608;2023-12-07T07:11:22;4.00;;;2.00;;
37169;SDS011;23062;13.952;100.608;2023-12-07T07:16:07;4.00;;;2.00;;
37169;SDS011;23062;13.952;100.608;2023-12-07T07:20:43;6.00;;;4.00;;
37169;SDS011;23062;13.952;100.608;2023-12-07T07:25:27;3.00;;;2.00;;
37169;SDS011;23062;13.952;100.608;2023-12-07T07:30:05;5.00;;;3.00;;
37169;SDS011;23062;13.952;100.608;2023-12-07T07:34:50;4.00;;;2.00;;
37169;SDS011;23062;13.952;100.608;2023-12-07T07:39:34;4.00;;;2.00;;
37169;SDS011;23062;13.952;100.608;2023-12-07T07:44:18;4.00;;;3.00;;
37169;SDS011;23062;13.952;100.608;2023-12-07T07:49:02;3.73;;;1.87;;
37169;SDS011;23062;13.952;100.608;2023-12-07T07:53:45;5.00;;;3.00;;
37169;SDS011;23062;13.952;100.608;2023-12-07T07:58:24;4.00;;;3.00;;
37169;SDS011;23062;13.952;100.608;2023-12-07T08:03:07;6.00;;;4.00;;
37169;SDS011;23062;13.952;100.608;2023-12-07T08:07:52;4.00;;;3.00;;
37169;SDS011;23062;13.952;100.608;2023-12-07T08:12:36;5.00;;;3.00;;
37169;SDS011;23062;13.952;100.608;2023-12-07T08:17:18;5.00;;;3.00;;
37169;SDS011;23062;13.952;100.608;2023-12-07T08:21:58;6.00;;;4.00;;
37169;SDS011;23062;13.952;100.608;2023-12-07T08:26:36;5.00;;;3.00;;
37169;SDS011;23062;13.952;100.608;2023-12-07T08:31:12;5.00;;;3.00;;
37169;SDS011;23062;13.952;100.608;2023-12-07T08:35:49;7.00;;;5.00;;
37169;SDS011;23062;13.952;100.608;2023-12-07T08:40:25;3.00;;;2.00;;
37169;SDS011;23062;13.952;100.608;2023-12-07T08:45:02;5.00;;;3.00;;
37169;SDS011;23062;13.952;100.608;2023-12-07T08:49:39;5.00;;;3.00;;
37169;SDS011;23062;13.952;100.608;2023-12-07T08:54:20;6.00;;;4.00;;
37169;SDS011;23062;13.952;100.608;2023-12-07T08:59:04;6.00;;;4.00;;
37169;SDS011;23062;13.952;100.608;2023-12-07T09:03:47;7.00;;;5.00;;
37169;SDS011;23062;13.952;100.608;2023-12-07T09:08:22;4.00;;;2.00;;
37169;SDS011;23062;13.952;100.608;2023-12-07T09:12:59;4.00;;;3.00;;
37169;SDS011;23062;13.952;100.608;2023-12-07T09:17:44;6.00;;;4.00;;
37169;SDS011;23062;13.952;100.608;2023-12-07T09:22:22;4.00;;;3.00;;
37169;SDS011;23062;13.952;100.608;2023-12-07T09:27:00;4.00;;;3.00;;
37169;SDS011;23062;13.952;100.608;2023-12-07T09:31:36;6.00;;;4.00;;
37169;SDS011;23062;13.952;100.608;2023-12-07T09:36:16;5.00;;;3.00;;
37169;SDS011;23062;13.952;100.608;2023-12-07T09:41:01;5.00;;;3.00;;
37169;SDS011;23062;13.952;100.608;2023-12-07T09:45:42;6.00;;;4.00;;
37169;SDS011;23062;13.952;100.608;2023-12-07T09:50:24;5.00;;;3.00;;
37169;SDS011;23062;13.952;100.608;2023-12-07T09:55:09;6.00;;;4.00;;
37169;SDS011;23062;13.952;100.608;2023-12-07T09:59:54;5.00;;;3.00;;
37169;SDS011;23062;13.952;100.608;2023-12-07T10:04:36;4.00;;;3.00;;
37169;SDS011;23062;13.952;100.608;2023-12-07T10:09:20;7.00;;;4.00;;
37169;SDS011;23062;13.952;100.608;2023-12-07T10:14:05;4.00;;;3.00;;
37169;SDS011;23062;13.952;100.608;2023-12-07T10:18:44;5.00;;;3.00;;
37169;SDS011;23062;13.952;100.608;2023-12-07T10:23:28;6.00;;;4.00;;
37169;SDS011;23062;13.952;100.608;2023-12-07T10:28:04;6.00;;;4.00;;
37169;SDS011;23062;13.952;100.608;2023-12-07T10:32:48;6.00;;;4.00;;
37169;SDS011;23062;13.952;100.608;2023-12-07T10:37:30;19.00;;;14.00;;
37169;SDS011;23062;13.952;100.608;2023-12-07T10:42:14;10.00;;;7.00;;
37169;SDS011;23062;13.952;100.608;2023-12-07T10:47:00;8.00;;;6.00;;
37169;SDS011;23062;13.952;100.608;2023-12-07T10:51:57;9.00;;;6.00;;
37169;SDS011;23062;13.952;100.608;2023-12-07T10:56:42;8.00;;;6.00;;
37169;SDS011;23062;13.952;100.608;2023-12-07T11:01:27;8.00;;;6.00;;
37169;SDS011;23062;13.952;100.608;2023-12-07T11:06:06;9.00;;;7.00;;
37169;SDS011;23062;13.952;100.608;2023-12-07T11:15:33;6.00;;;4.00;;
37169;SDS011;23062;13.952;100.608;2023-12-07T11:20:18;8.00;;;6.00;;
37169;SDS011;23062;13.952;100.608;2023-12-07T11:24:56;9.00;;;6.00;;
37169;SDS011;23062;13.952;100.608;2023-12-07T11:29:45;7.00;;;5.00;;
37169;SDS011;23062;13.952;100.608;2023-12-07T11:34:38;9.00;;;7.00;;
37169;SDS011;23062;13.952;100.608;2023-12-07T11:39:25;8.00;;;6.00;;
37169;SDS011;23062;13.952;100.608;2023-12-07T11:44:04;10.00;;;7.00;;
37169;SDS011;23062;13.952;100.608;2023-12-07T11:48:49;13.00;;;9.00;;
37169;SDS011;23062;13.952;100.608;2023-12-07T11:53:33;9.00;;;7.00;;
37169;SDS011;23062;13.952;100.608;2023-12-07T11:58:20;9.00;;;6.00;;
37169;SDS011;23062;13.952;100.608;2023-12-07T12:03:06;10.00;;;7.00;;
37169;SDS011;23062;13.952;100.608;2023-12-07T12:07:46;7.00;;;5.00;;
37169;SDS011;23062;13.952;100.608;2023-12-07T12:12:28;8.00;;;6.00;;
37169;SDS011;23062;13.952;100.608;2023-12-07T12:17:09;9.00;;;6.00;;
37169;SDS011;23062;13.952;100.608;2023-12-07T12:21:59;11.00;;;7.00;;
37169;SDS011;23062;13.952;100.608;2023-12-07T12:26:45;9.00;;;7.00;;
37169;SDS011;23062;13.952;100.608;2023-12-07T12:31:33;11.00;;;8.00;;
37169;SDS011;23062;13.952;100.608;2023-12-07T12:36:20;11.00;;;8.00;;
37169;SDS011;23062;13.952;100.608;2023-12-07T12:41:05;9.00;;;7.00;;
37169;SDS011;23062;13.952;100.608;2023-12-07T12:45:52;13.00;;;9.00;;
37169;SDS011;23062;13.952;100.608;2023-12-07T12:50:41;11.00;;;8.00;;
37169;SDS011;23062;13.952;100.608;2023-12-07T12:55:23;15.00;;;11.00;;
37169;SDS011;23062;13.952;100.608;2023-12-07T13:00:14;8.00;;;6.00;;
37169;SDS011;23062;13.952;100.608;2023-12-07T13:05:07;13.00;;;9.00;;
37169;SDS011;23062;13.952;100.608;2023-12-07T13:09:55;11.20;;;7.47;;
37169;SDS011;23062;13.952;100.608;2023-12-07T13:14:38;11.00;;;7.00;;
37169;SDS011;23062;13.952;100.608;2023-12-07T13:19:18;10.00;;;7.00;;
37169;SDS011;23062;13.952;100.608;2023-12-07T13:24:00;9.00;;;6.00;;
37169;SDS011;23062;13.952;100.608;2023-12-07T13:28:50;10.00;;;7.00;;
37169;SDS011;23062;13.952;100.608;2023-12-07T13:33:36;10.00;;;7.00;;
37169;SDS011;23062;13.952;100.608;2023-12-07T13:38:24;11.00;;;8.00;;
37169;SDS011;23062;13.952;100.608;2023-12-07T13:43:15;9.33;;;6.53;;
37169;SDS011;23062;13.952;100.608;2023-12-07T13:48:01;9.00;;;7.00;;
37169;SDS011;23062;13.952;100.608;2023-12-07T13:52:51;11.00;;;8.00;;
37169;SDS011;23062;13.952;100.608;2023-12-07T13:57:38;9.33;;;6.53;;
37169;SDS011;23062;13.952;100.608;2023-12-07T14:02:26;9.00;;;6.00;;
37169;SDS011;23062;13.952;100.608;2023-12-07T14:07:14;8.00;;;6.00;;
37169;SDS011;23062;13.952;100.608;2023-12-07T14:12:02;12.00;;;8.00;;
37169;SDS011;23062;13.952;100.608;2023-12-07T14:16:50;9.00;;;7.00;;
37169;SDS011;23062;13.952;100.608;2023-12-07T14:21:42;10.00;;;7.00;;
37169;SDS011;23062;13.952;100.608;2023-12-07T14:26:27;9.00;;;6.00;;
37169;SDS011;23062;13.952;100.608;2023-12-07T14:31:17;9.00;;;6.00;;
37169;SDS011;23062;13.952;100.608;2023-12-07T14:35:58;10.00;;;7.00;;
37169;SDS011;23062;13.952;100.608;2023-12-07T14:40:46;9.00;;;6.00;;
37169;SDS011;23062;13.952;100.608;2023-12-07T14:45:35;12.00;;;8.00;;
37169;SDS011;23062;13.952;100.608;2023-12-07T14:50:21;8.00;;;6.00;;
37169;SDS011;23062;13.952;100.608;2023-12-07T14:55:06;10.00;;;7.00;;
37169;SDS011;23062;13.952;100.608;2023-12-07T14:59:52;9.00;;;6.00;;
37169;SDS011;23062;13.952;100.608;2023-12-07T15:04:39;10.00;;;7.00;;
37169;SDS011;23062;13.952;100.608;2023-12-07T15:09:24;9.00;;;6.00;;
37169;SDS011;23062;13.952;100.608;2023-12-07T15:14:08;9.00;;;7.00;;
37169;SDS011;23062;13.952;100.608;2023-12-07T15:18:53;10.00;;;7.00;;
37169;SDS011;23062;13.952;100.608;2023-12-07T15:23:38;8.00;;;6.00;;
37169;SDS011;23062;13.952;100.608;2023-12-07T15:28:23;10.00;;;7.00;;
37169;SDS011;23062;13.952;100.608;2023-12-07T15:33:07;12.00;;;8.00;;
37169;SDS011;23062;13.952;100.608;2023-12-07T15:37:51;8.00;;;6.00;;
37169;SDS011;23062;13.952;100.608;2023-12-07T15:42:36;11.00;;;8.00;;
37169;SDS011;23062;13.952;100.608;2023-12-07T15:47:21;9.00;;;6.00;;
37169;SDS011;23062;13.952;100.608;2023-12-07T15:51:59;10.00;;;7.00;;
37169;SDS011;23062;13.952;100.608;2023-12-07T15:56:43;9.00;;;7.00;;
37169;SDS011;23062;13.952;100.608;2023-12-07T16:01:27;9.00;;;7.00;;
37169;SDS011;23062;13.952;100.608;2023-12-07T16:06:06;9.00;;;7.00;;
37169;SDS011;23062;13.952;100.608;2023-12-07T16:10:47;8.00;;;6.00;;
37169;SDS011;23062;13.952;100.608;2023-12-07T16:15:31;11.00;;;7.00;;
37169;SDS011;23062;13.952;100.608;2023-12-07T16:20:15;11.00;;;8.00;;
37169;SDS011;23062;13.952;100.608;2023-12-07T16:25:10;11.00;;;8.00;;
37169;SDS011;23062;13.952;100.608;2023-12-07T16:29:49;10.00;;;7.00;;
37169;SDS011;23062;13.952;100.608;2023-12-07T16:34:33;10.00;;;7.00;;
37169;SDS011;23062;13.952;100.608;2023-12-07T16:39:13;13.00;;;9.00;;
37169;SDS011;23062;13.952;100.608;2023-12-07T16:43:56;10.00;;;7.00;;
37169;SDS011;23062;13.952;100.608;2023-12-07T16:48:53;11.00;;;8.00;;
37169;SDS011;23062;13.952;100.608;2023-12-07T16:53:31;11.00;;;7.00;;
37169;SDS011;23062;13.952;100.608;2023-12-07T16:58:13;10.00;;;7.00;;
37169;SDS011;23062;13.952;100.608;2023-12-07T17:02:56;8.00;;;6.00;;
37169;SDS011;23062;13.952;100.608;2023-12-07T17:07:40;9.00;;;6.00;;
37169;SDS011;23062;13.952;100.608;2023-12-07T17:12:24;9.00;;;6.00;;
37169;SDS011;23062;13.952;100.608;2023-12-07T17:17:09;12.00;;;9.00;;
37169;SDS011;23062;13.952;100.608;2023-12-07T17:21:52;10.00;;;7.00;;
37169;SDS011;23062;13.952;100.608;2023-12-07T17:26:35;11.00;;;8.00;;
37169;SDS011;23062;13.952;100.608;2023-12-07T17:31:22;10.00;;;7.00;;
37169;SDS011;23062;13.952;100.608;2023-12-07T17:36:06;8.00;;;6.00;;
37169;SDS011;23062;13.952;100.608;2023-12-07T17:40:50;10.00;;;7.00;;
37169;SDS011;23062;13.952;100.608;2023-12-07T17:45:34;11.00;;;8.00;;
37169;SDS011;23062;13.952;100.608;2023-12-07T17:50:20;9.00;;;6.00;;
37169;SDS011;23062;13.952;100.608;2023-12-07T17:55:09;11.00;;;8.00;;
37169;SDS011;23062;13.952;100.608;2023-12-07T17:59:53;10.00;;;7.00;;
37169;SDS011;23062;13.952;100.608;2023-12-07T18:04:39;10.00;;;7.00;;
37169;SDS011;23062;13.952;100.608;2023-12-07T18:09:24;12.00;;;9.00;;
37169;SDS011;23062;13.952;100.608;2023-12-07T18:14:08;13.00;;;9.00;;
37169;SDS011;23062;13.952;100.608;2023-12-07T18:18:49;14.00;;;10.00;;
37169;SDS011;23062;13.952;100.608;2023-12-07T18:23:26;13.00;;;9.00;;
37169;SDS011;23062;13.952;100.608;2023-12-07T18:28:09;12.00;;;8.00;;
37169;SDS011;23062;13.952;100.608;2023-12-07T18:32:54;11.00;;;8.00;;
37169;SDS011;23062;13.952;100.608;2023-12-07T18:37:41;11.00;;;7.00;;
37169;SDS011;23062;13.952;100.608;2023-12-07T18:42:23;11.00;;;8.00;;
37169;SDS011;23062;13.952;100.608;2023-12-07T18:47:07;12.00;;;8.00;;
37169;SDS011;23062;13.952;100.608;2023-12-07T18:51:52;14.00;;;10.00;;
37169;SDS011;23062;13.952;100.608;2023-12-07T18:56:36;11.00;;;8.00;;
37169;SDS011;23062;13.952;100.608;2023-12-07T19:01:13;10.00;;;7.00;;
37169;SDS011;23062;13.952;100.608;2023-12-07T19:05:53;12.00;;;8.00;;
37169;SDS011;23062;13.952;100.608;2023-12-07T19:10:31;11.00;;;8.00;;
37169;SDS011;23062;13.952;100.608;2023-12-07T19:15:16;11.00;;;8.00;;
37169;SDS011;23062;13.952;100.608;2023-12-07T19:20:00;13.00;;;9.00;;
37169;SDS011;23062;13.952;100.608;2023-12-07T19:24:37;12.00;;;8.00;;
37169;SDS011;23062;13.952;100.608;2023-12-07T19:29:21;11.00;;;8.00;;
37169;SDS011;23062;13.952;100.608;2023-12-07T19:34:06;11.00;;;8.00;;
37169;SDS011;23062;13.952;100.608;2023-12-07T19:38:44;11.00;;;8.00;;
37169;SDS011;23062;13.952;100.608;2023-12-07T19:43:25;10.00;;;7.00;;
37169;SDS011;23062;13.952;100.608;2023-12-07T19:48:09;11.00;;;8.00;;
37169;SDS011;23062;13.952;100.608;2023-12-07T19:52:45;11.00;;;8.00;;
37169;SDS011;23062;13.952;100.608;2023-12-07T19:57:31;9.00;;;6.00;;
37169;SDS011;23062;13.952;100.608;2023-12-07T20:02:15;11.20;;;8.40;;
37169;SDS011;23062;13.952;100.608;2023-12-07T20:11:37;11.00;;;8.00;;
37169;SDS011;23062;13.952;100.608;2023-12-07T20:16:16;10.00;;;7.00;;
37169;SDS011;23062;13.952;100.608;2023-12-07T20:21:01;12.00;;;9.00;;
37169;SDS011;23062;13.952;100.608;2023-12-07T20:25:48;13.00;;;9.00;;
37169;SDS011;23062;13.952;100.608;2023-12-07T20:30:32;12.00;;;9.00;;
37169;SDS011;23062;13.952;100.608;2023-12-07T20:35:15;17.00;;;13.00;;
37169;SDS011;23062;13.952;100.608;2023-12-07T20:39:54;21.00;;;15.00;;
37169;SDS011;23062;13.952;100.608;2023-12-07T20:44:37;22.00;;;16.00;;
37169;SDS011;23062;13.952;100.608;2023-12-07T20:49:22;16.00;;;12.00;;
37169;SDS011;23062;13.952;100.608;2023-12-07T20:54:06;15.00;;;11.00;;
37169;SDS011;23062;13.952;100.608;2023-12-07T20:58:50;15.00;;;11.00;;
37169;SDS011;23062;13.952;100.608;2023-12-07T21:03:36;13.00;;;10.00;;
37169;SDS011;23062;13.952;100.608;2023-12-07T21:08:20;14.00;;;10.00;;
37169;SDS011;23062;13.952;100.608;2023-12-07T21:13:03;14.00;;;10.00;;
37169;SDS011;23062;13.952;100.608;2023-12-07T21:17:48;15.00;;;11.00;;
37169;SDS011;23062;13.952;100.608;2023-12-07T21:22:35;13.00;;;10.00;;
37169;SDS011;23062;13.952;100.608;2023-12-07T21:27:20;11.00;;;8.00;;
37169;SDS011;23062;13.952;100.608;2023-12-07T21:32:03;12.00;;;9.00;;
37169;SDS011;23062;13.952;100.608;2023-12-07T21:36:44;12.13;;;9.33;;
37169;SDS011;23062;13.952;100.608;2023-12-07T21:41:29;12.00;;;8.00;;
37169;SDS011;23062;13.952;100.608;2023-12-07T21:46:13;13.00;;;9.00;;
37169;SDS011;23062;13.952;100.608;2023-12-07T21:50:56;16.00;;;11.00;;
37169;SDS011;23062;13.952;100.608;2023-12-07T21:55:32;13.00;;;9.00;;
37169;SDS011;23062;13.952;100.608;2023-12-07T22:00:19;14.00;;;10.00;;
37169;SDS011;23062;13.952;100.608;2023-12-07T22:05:02;16.00;;;12.00;;
37169;SDS011;23062;13.952;100.608;2023-12-07T22:09:45;13.00;;;10.00;;
37169;SDS011;23062;13.952;100.608;2023-12-07T22:14:31;24.00;;;18.00;;
37169;SDS011;23062;13.952;100.608;2023-12-07T22:19:43;25.00;;;19.00;;
37169;SDS011;23062;13.952;100.608;2023-12-07T22:24:26;21.00;;;15.00;;
37169;SDS011;23062;13.952;100.608;2023-12-07T22:29:10;17.00;;;13.00;;
37169;SDS011;23062;13.952;100.608;2023-12-07T22:33:55;20.00;;;15.00;;
37169;SDS011;23062;13.952;100.608;2023-12-07T22:38:39;17.00;;;12.00;;
37169;SDS011;23062;13.952;100.608;2023-12-07T22:43:20;16.00;;;12.00;;
37169;SDS011;23062;13.952;100.608;2023-12-07T22:47:55;16.00;;;11.00;;
37169;SDS011;23062;13.952;100.608;2023-12-07T22:52:40;14.00;;;10.00;;
37169;SDS011;23062;13.952;100.608;2023-12-07T22:57:18;15.00;;;11.00;;
37169;SDS011;23062;13.952;100.608;2023-12-07T23:02:04;16.00;;;11.00;;
37169;SDS011;23062;13.952;100.608;2023-12-07T23:06:46;16.00;;;11.00;;
37169;SDS011;23062;13.952;100.608;2023-12-07T23:11:32;17.00;;;12.00;;
37169;SDS011;23062;13.952;100.608;2023-12-07T23:16:16;15.00;;;11.00;;
37169;SDS011;23062;13.952;100.608;2023-12-07T23:20:55;17.00;;;12.00;;
37169;SDS011;23062;13.952;100.608;2023-12-07T23:25:32;14.00;;;11.00;;
37169;SDS011;23062;13.952;100.608;2023-12-07T23:30:08;21.00;;;15.00;;
37169;SDS011;23062;13.952;100.608;2023-12-07T23:34:51;17.00;;;12.00;;
37169;SDS011;23062;13.952;100.608;2023-12-07T23:39:33;18.00;;;13.00;;
37169;SDS011;23062;13.952;100.608;2023-12-07T23:44:17;21.47;;;14.93;;
37169;SDS011;23062;13.952;100.608;2023-12-07T23:48:55;19.00;;;15.00;;
37169;SDS011;23062;13.952;100.608;2023-12-07T23:53:34;22.00;;;17.00;;
37169;SDS011;23062;13.952;100.608;2023-12-07T23:58:18;23.00;;;17.00;;
